Enterprise, Mississippi
Current Conditions -  °F | °C
As of 4:58 PM on Saturday 25 Oct 2014 (Local Time) from KMEI Reporting Station
Clear Clear  
Wind Chill: 79°   Ceiling: Unl
Heat Index: 80°   Visibility: 10mi
Dew Point: 59°   Wind: 7mph
Humidity: 50%   Direction: 340°NNW
Pressure: 30.05"   Gusts: NA
Location:  32.17°N, 88.83°W
Report Text: KMEI 252158Z 34006KT 10SM CLR 26/15 A3005 RMK AO2 SLP175 T02610150
Loading
Personal Weather Stations






























Interactive Weather Map
Tropical Storm Tracking
New forecast layout! Learn more

10-Day Weather Forecast

Advertisements
Track Severe Weather on mobile